Etusivu
METAR-TAF:

METAR-TAF

Lentoasemat :

Hohenfels, Saksa

Leveyspiiri: 49-13N, Pituuspiiri: 011-50E, korkeus merenpinnasta: 442 m

Tämänhetkinen sää

Tämä raportti tehtiin 39 minuuttia sitten, kello 21.05 UTC
Tuuli 3 kn idästä/koillisesta
Lämpötila 2°C
Kosteus 80%
Ilmanpaine 1020 hPa
Näkyvyys 10 km tai enemmän
Pilvistä 1500 ft:n korkeudessa
heikkoa sadetta

METAR: ETIH 212105Z AUTO 06003KT 9999 -RA OVC015 02/M01 A3012 RMK AO2 SLP214 $

Aika: 23:44 (21:44 UTC)


TAF: puuttuu

Säähavainnot ja -ennusteet yli 4000 lentoasemalta (METAR- ja TAF-raportit).

Käytössä olevat sääasemat on merkitty karttaan keltaisilla ja punaisilla pisteillä.

Aseta hiiri pisteen päälle nähdäksesi sääaseman nimen.

Klikkaa sitten nähdäksesi säähavainnot ja -ennusteet.

Kartan vaihtaminen: klikkaa mustalla rastilla varustettuja vihreitä pisteitä, niin voit zoomata sisään; viivalla varustettua vihreää pistettä, niin voit zoomata ulos tai vihreitä nuolia, niin pääset viereisille kartoille.


METAR-TAF: